createdAt,value
2022-09-12T00:01:48.942Z,14.79
2022-09-12T00:04:15.337Z,14.69
2022-09-12T00:06:42.111Z,14.74
2022-09-12T00:09:11.503Z,14.87
2022-09-12T00:11:40.561Z,14.73
2022-09-12T00:14:09.034Z,14.75
2022-09-12T00:16:37.013Z,14.65
2022-09-12T00:19:05.201Z,14.58
2022-09-12T00:21:35.374Z,14.62
2022-09-12T00:24:02.019Z,14.62
2022-09-12T00:26:28.740Z,14.57
2022-09-12T00:28:55.124Z,14.59
2022-09-12T00:31:24.965Z,14.58
2022-09-12T00:33:52.589Z,14.50
2022-09-12T00:36:24.857Z,14.48
2022-09-12T00:38:51.821Z,14.32
2022-09-12T00:41:24.100Z,14.37
2022-09-12T00:43:56.577Z,14.44
2022-09-12T00:46:32.345Z,14.44
2022-09-12T00:49:07.441Z,14.49
2022-09-12T00:51:36.546Z,14.35
2022-09-12T00:54:09.055Z,14.29
2022-09-12T00:56:36.684Z,14.15
2022-09-12T00:59:10.924Z,14.06
2022-09-12T01:01:39.216Z,14.12
2022-09-12T01:04:05.642Z,14.25
2022-09-12T01:06:38.794Z,14.21
2022-09-12T01:09:05.816Z,14.15
2022-09-12T01:11:36.059Z,14.08
2022-09-12T01:14:02.526Z,14.15
2022-09-12T01:16:29.523Z,14.11
2022-09-12T01:19:00.045Z,14.15
2022-09-12T01:21:59.434Z,14.00
2022-09-12T01:24:34.823Z,14.08
2022-09-12T01:27:29.051Z,14.05
2022-09-12T01:30:05.402Z,14.12
2022-09-12T01:32:43.648Z,13.97
2022-09-12T01:35:19.806Z,13.97
2022-09-12T01:38:04.460Z,14.04
2022-09-12T01:40:49.082Z,14.07
2022-09-12T01:43:31.743Z,13.92
2022-09-12T01:46:21.026Z,14.02
2022-09-12T01:48:55.266Z,13.94
2022-09-12T01:51:51.850Z,13.88
2022-09-12T01:54:29.791Z,13.77
2022-09-12T01:57:00.393Z,13.81
2022-09-12T01:59:33.981Z,13.70
2022-09-12T02:02:07.097Z,13.70
2022-09-12T02:04:46.795Z,13.68
2022-09-12T02:07:21.365Z,13.78
2022-09-12T02:09:54.986Z,13.58
2022-09-12T02:12:27.466Z,13.55
2022-09-12T02:15:01.125Z,13.56
2022-09-12T02:17:29.581Z,13.47
2022-09-12T02:20:03.019Z,13.61
2022-09-12T02:22:31.581Z,13.67
2022-09-12T02:25:00.830Z,13.53
2022-09-12T02:27:37.794Z,13.49
2022-09-12T02:30:06.475Z,13.43
2022-09-12T02:32:45.246Z,13.34
2022-09-12T02:35:22.357Z,13.38
2022-09-12T02:37:58.427Z,13.40
2022-09-12T02:40:25.512Z,13.41
2022-09-12T02:42:52.241Z,13.36
2022-09-12T02:45:18.998Z,13.41
2022-09-12T02:47:58.720Z,13.36
2022-09-12T02:50:25.519Z,13.32
2022-09-12T02:52:54.630Z,13.36
2022-09-12T02:55:21.473Z,13.40
2022-09-12T02:57:47.847Z,13.40
2022-09-12T03:00:14.633Z,13.39
2022-09-12T03:03:04.524Z,13.33
2022-09-12T03:05:51.436Z,13.37
2022-09-12T03:08:38.035Z,13.25
2022-09-12T03:11:10.486Z,13.21
2022-09-12T03:13:36.760Z,13.26
2022-09-12T03:16:33.960Z,13.10
2022-09-12T03:19:15.849Z,13.21
2022-09-12T03:22:08.486Z,13.11
2022-09-12T03:24:45.156Z,12.93
2022-09-12T03:27:22.733Z,12.99
2022-09-12T03:29:50.859Z,13.09
2022-09-12T03:32:17.195Z,13.12
2022-09-12T03:34:43.580Z,13.01
2022-09-12T03:37:09.962Z,13.02
2022-09-12T03:39:36.286Z,13.04
2022-09-12T03:42:02.800Z,13.09
2022-09-12T03:44:29.203Z,12.91
2022-09-12T03:46:55.584Z,12.77
2022-09-12T03:49:21.915Z,12.91
2022-09-12T03:51:48.257Z,12.79
2022-09-12T03:54:14.573Z,12.88
2022-09-12T03:56:41.503Z,12.82
2022-09-12T03:59:08.239Z,12.72
2022-09-12T04:01:34.729Z,12.72
2022-09-12T04:04:01.430Z,12.64
2022-09-12T04:06:27.801Z,12.68
2022-09-12T04:08:55.178Z,12.79
2022-09-12T04:11:22.557Z,12.75
2022-09-12T04:13:49.038Z,12.71
2022-09-12T04:16:16.540Z,12.69
2022-09-12T04:18:43.617Z,12.68
2022-09-12T04:21:15.867Z,12.93
2022-09-12T04:23:42.953Z,12.75
2022-09-12T04:26:13.349Z,12.67
2022-09-12T04:28:40.251Z,12.51
2022-09-12T04:31:09.857Z,12.64
2022-09-12T04:33:36.475Z,13.43
2022-09-12T04:36:07.672Z,12.75
2022-09-12T04:38:35.697Z,12.68
2022-09-12T04:41:20.407Z,12.61
2022-09-12T04:43:51.688Z,12.66
2022-09-12T04:46:20.286Z,12.81
2022-09-12T04:48:47.854Z,12.93
2022-09-12T04:51:17.144Z,12.94
2022-09-12T04:53:49.290Z,13.03
2022-09-12T04:56:15.760Z,13.17
2022-09-12T04:58:42.362Z,13.12
2022-09-12T05:01:14.283Z,13.15
2022-09-12T05:03:43.327Z,13.00
2022-09-12T05:06:14.174Z,13.09
2022-09-12T05:08:40.938Z,13.13
2022-09-12T05:11:13.091Z,13.18
2022-09-12T05:13:40.085Z,13.13
2022-09-12T05:16:07.904Z,13.09
2022-09-12T05:18:35.979Z,13.13
2022-09-12T05:21:07.993Z,13.34
2022-09-12T05:23:34.355Z,13.28
2022-09-12T05:26:02.265Z,13.26
2022-09-12T05:28:34.491Z,13.25
2022-09-12T05:31:06.876Z,13.44
2022-09-12T05:33:37.626Z,13.36
2022-09-12T05:36:06.359Z,13.40
2022-09-12T05:38:35.592Z,13.22
2022-09-12T05:41:14.661Z,13.20
2022-09-12T05:43:43.879Z,13.32
2022-09-12T05:46:16.305Z,13.48
2022-09-12T05:48:44.495Z,13.72
2022-09-12T05:51:19.101Z,13.45
2022-09-12T05:53:53.385Z,13.59
2022-09-12T05:56:23.275Z,13.33
2022-09-12T05:58:58.264Z,13.54
2022-09-12T06:01:26.206Z,13.80
2022-09-12T06:03:54.492Z,14.10
2022-09-12T06:06:24.504Z,14.49
2022-09-12T06:08:53.171Z,14.38
2022-09-12T06:11:22.919Z,14.43
2022-09-12T06:13:50.982Z,14.24
2022-09-12T06:16:22.939Z,14.00
2022-09-12T06:18:54.038Z,13.96
2022-09-12T06:21:22.834Z,13.83
2022-09-12T06:23:49.344Z,13.88
2022-09-12T06:26:17.669Z,13.99
2022-09-12T06:28:45.212Z,14.13
2022-09-12T06:31:18.487Z,14.06
2022-09-12T06:33:48.780Z,14.21
2022-09-12T06:36:18.286Z,14.15
2022-09-12T06:38:46.264Z,14.19
2022-09-12T06:41:13.611Z,14.32
2022-09-12T06:43:41.519Z,14.33
2022-09-12T06:46:09.565Z,14.30
2022-09-12T06:48:41.607Z,14.31
2022-09-12T06:51:14.073Z,14.38
2022-09-12T06:53:41.315Z,14.58
2022-09-12T06:56:10.253Z,14.57
2022-09-12T06:58:38.569Z,14.89
2022-09-12T07:01:06.578Z,15.02
2022-09-12T07:03:33.840Z,15.18
2022-09-12T07:06:06.202Z,15.07
2022-09-12T07:08:34.056Z,15.05
2022-09-12T07:11:11.043Z,14.96
2022-09-12T07:13:38.428Z,15.05
2022-09-12T07:16:05.761Z,15.06
2022-09-12T07:18:33.341Z,15.23
2022-09-12T07:21:01.867Z,15.50
2022-09-12T07:23:29.840Z,15.52
2022-09-12T07:25:58.374Z,15.86
2022-09-12T07:28:29.359Z,15.82
2022-09-12T07:30:56.150Z,15.78
2022-09-12T07:33:29.426Z,16.00
2022-09-12T07:36:01.256Z,16.05
2022-09-12T07:38:27.631Z,15.93
2022-09-12T07:40:54.076Z,15.91
2022-09-12T07:43:20.455Z,16.29
2022-09-12T07:45:46.794Z,17.04
2022-09-12T07:48:13.846Z,16.69
2022-09-12T07:50:44.987Z,16.65
2022-09-12T07:53:11.586Z,16.81
2022-09-12T07:55:37.942Z,16.63
2022-09-12T07:58:04.359Z,16.83
2022-09-12T08:00:35.815Z,17.12
2022-09-12T08:03:07.209Z,17.47
2022-09-12T08:05:33.538Z,17.63
2022-09-12T08:07:59.883Z,17.55
2022-09-12T08:10:26.243Z,17.99
2022-09-12T08:12:52.630Z,17.70
2022-09-12T08:15:20.227Z,17.65
2022-09-12T08:17:46.673Z,17.71
2022-09-12T08:20:13.120Z,18.18
2022-09-12T08:22:40.648Z,18.30
2022-09-12T08:25:08.634Z,18.32
2022-09-12T08:27:34.977Z,18.37
2022-09-12T08:30:01.452Z,18.32
2022-09-12T08:32:28.052Z,18.43
2022-09-12T08:34:54.487Z,18.53
2022-09-12T08:37:20.812Z,18.26
2022-09-12T08:39:47.823Z,18.28
2022-09-12T08:42:31.618Z,18.61
2022-09-12T08:45:20.888Z,18.49
2022-09-12T08:47:48.739Z,18.95
2022-09-12T08:50:21.964Z,18.84
2022-09-12T08:52:58.519Z,18.67
2022-09-12T08:55:27.535Z,18.81
2022-09-12T08:57:54.235Z,18.82
2022-09-12T09:00:21.528Z,19.29
2022-09-12T09:03:20.259Z,19.08
2022-09-12T09:06:07.013Z,19.47
2022-09-12T09:08:43.565Z,19.77
2022-09-12T09:11:50.836Z,19.88
2022-09-12T09:14:48.198Z,20.10
2022-09-12T09:17:38.697Z,20.06
2022-09-12T09:20:30.104Z,20.19
2022-09-12T09:22:59.725Z,20.67
2022-09-12T09:25:57.984Z,20.68
2022-09-12T09:28:33.806Z,20.98
2022-09-12T09:31:00.405Z,20.93
2022-09-12T09:33:33.598Z,20.91
2022-09-12T09:36:06.347Z,21.55
2022-09-12T09:38:48.190Z,20.99
2022-09-12T09:41:33.776Z,20.79
2022-09-12T09:44:00.985Z,20.62
2022-09-12T09:46:27.899Z,20.65
2022-09-12T09:48:55.397Z,20.83
2022-09-12T09:51:28.420Z,21.44
2022-09-12T09:54:01.705Z,21.53
2022-09-12T09:56:33.463Z,21.59
2022-09-12T09:59:08.834Z,21.25
2022-09-12T10:01:35.294Z,21.46
2022-09-12T10:04:01.804Z,21.22
2022-09-12T10:06:34.262Z,21.37
2022-09-12T10:09:08.896Z,21.83
2022-09-12T10:11:36.308Z,21.81
2022-09-12T10:14:04.462Z,22.22
2022-09-12T10:16:48.259Z,22.12
2022-09-12T10:19:34.070Z,22.68
2022-09-12T10:22:00.982Z,22.53
2022-09-12T10:24:32.780Z,22.67
2022-09-12T10:27:15.477Z,22.62
2022-09-12T10:29:48.362Z,22.87
2022-09-12T10:32:36.053Z,22.54
2022-09-12T10:35:18.715Z,22.67
2022-09-12T10:37:58.445Z,22.62
2022-09-12T10:40:32.507Z,23.14
2022-09-12T10:43:00.327Z,22.99
2022-09-12T10:45:37.541Z,23.10
2022-09-12T10:48:31.223Z,23.12
2022-09-12T10:51:01.323Z,23.14
2022-09-12T10:53:34.475Z,22.91
2022-09-12T10:56:09.201Z,22.87
2022-09-12T10:59:00.218Z,22.67
2022-09-12T11:01:32.540Z,22.99
2022-09-12T11:04:08.000Z,23.23
2022-09-12T11:06:47.021Z,23.27
2022-09-12T11:09:21.920Z,23.34
2022-09-12T11:12:13.377Z,23.23
2022-09-12T11:14:46.074Z,23.33
2022-09-12T11:17:41.479Z,23.77
2022-09-12T11:20:14.019Z,23.53
2022-09-12T11:22:46.299Z,23.82
2022-09-12T11:25:28.410Z,24.08
2022-09-12T11:28:19.779Z,24.17
2022-09-12T11:31:06.491Z,23.83
2022-09-12T11:33:42.832Z,23.70
2022-09-12T11:36:22.000Z,23.59
2022-09-12T11:38:58.346Z,23.84
2022-09-12T11:41:38.191Z,23.99
2022-09-12T11:44:31.570Z,24.18
2022-09-12T11:46:59.375Z,24.32
2022-09-12T11:49:35.575Z,24.31
2022-09-12T11:52:18.060Z,24.15
2022-09-12T11:54:53.863Z,24.02
2022-09-12T11:57:39.210Z,23.73
2022-09-12T12:00:17.763Z,23.84
2022-09-12T12:03:13.705Z,24.00
2022-09-12T12:05:53.299Z,24.15
2022-09-12T12:08:23.285Z,24.36
2022-09-12T12:10:59.711Z,24.58
2022-09-12T12:13:40.127Z,24.44
2022-09-12T12:16:14.181Z,25.06
2022-09-12T12:18:42.810Z,24.26
2022-09-12T12:21:20.983Z,24.58
2022-09-12T12:24:08.774Z,24.22
2022-09-12T12:26:58.666Z,24.12
2022-09-12T12:29:31.038Z,24.23
2022-09-12T12:32:07.669Z,24.51
2022-09-12T12:34:44.011Z,24.94
2022-09-12T12:37:19.390Z,24.30
2022-09-12T12:39:49.739Z,24.17
2022-09-12T12:42:37.471Z,24.09
2022-09-12T12:45:06.900Z,24.38
2022-09-12T12:47:40.957Z,24.36
2022-09-12T12:50:09.989Z,24.56
2022-09-12T12:52:47.653Z,24.66
2022-09-12T12:55:26.316Z,24.76
2022-09-12T12:57:55.829Z,24.76
2022-09-12T13:00:25.373Z,24.83
2022-09-12T13:03:01.128Z,24.98
2022-09-12T13:05:30.537Z,25.20
2022-09-12T13:08:10.098Z,25.35
2022-09-12T13:10:37.696Z,25.44
2022-09-12T13:13:08.613Z,25.28
2022-09-12T13:15:38.057Z,25.60
2022-09-12T13:18:10.481Z,25.29
2022-09-12T13:20:46.929Z,25.35
2022-09-12T13:23:22.483Z,25.17
2022-09-12T13:25:53.670Z,25.29
2022-09-12T13:28:20.026Z,25.22
2022-09-12T13:31:24.392Z,25.09
2022-09-12T13:33:58.062Z,24.98
2022-09-12T13:36:32.410Z,24.79
2022-09-12T13:39:09.504Z,25.17
2022-09-12T13:42:03.423Z,25.30
2022-09-12T13:44:31.547Z,25.25
2022-09-12T13:47:01.003Z,24.99
2022-09-12T13:52:15.563Z,24.87
2022-09-12T13:54:45.803Z,24.87
2022-09-12T13:57:33.765Z,25.09
2022-09-12T14:00:02.902Z,25.18
2022-09-12T14:02:31.171Z,25.30
2022-09-12T14:05:10.206Z,24.78
2022-09-12T14:07:58.392Z,25.22
2022-09-12T14:10:30.135Z,25.34
2022-09-12T14:12:57.267Z,25.47
2022-09-12T14:15:27.136Z,25.46
2022-09-12T14:18:01.169Z,25.49
2022-09-12T14:20:33.848Z,25.46
2022-09-12T14:23:03.473Z,25.59
2022-09-12T14:25:37.372Z,25.55
2022-09-12T14:28:04.107Z,25.64
2022-09-12T14:30:32.786Z,25.80
2022-09-12T14:33:11.369Z,26.07
2022-09-12T14:35:59.144Z,25.97
2022-09-12T14:38:34.138Z,26.13
2022-09-12T14:41:08.677Z,25.71
2022-09-12T14:43:38.862Z,25.28
2022-09-12T14:46:30.442Z,25.53
2022-09-12T14:49:20.461Z,25.30
2022-09-12T14:51:56.325Z,25.26
2022-09-12T14:54:36.037Z,24.95
2022-09-12T14:57:06.417Z,25.20
2022-09-12T14:59:35.783Z,25.44
2022-09-12T15:02:20.581Z,25.39
2022-09-12T15:04:52.789Z,25.32
2022-09-12T15:07:28.365Z,25.59
2022-09-12T15:09:54.781Z,25.35
2022-09-12T15:12:22.254Z,25.32
2022-09-12T15:14:48.647Z,25.34
2022-09-12T15:17:18.859Z,25.48
2022-09-12T15:19:45.281Z,25.57
2022-09-12T15:22:13.756Z,25.47
2022-09-12T15:24:40.181Z,25.29
2022-09-12T15:27:12.032Z,25.20
2022-09-12T15:29:38.984Z,24.98
2022-09-12T15:32:06.744Z,25.14
2022-09-12T15:34:33.520Z,25.22
2022-09-12T15:37:00.123Z,25.28
2022-09-12T15:39:27.459Z,25.51
2022-09-12T15:41:54.050Z,25.20
2022-09-12T15:44:20.706Z,25.15
2022-09-12T15:46:47.150Z,25.12
2022-09-12T15:49:13.809Z,25.19
2022-09-12T15:51:40.212Z,24.98
2022-09-12T15:54:06.556Z,25.02
2022-09-12T15:56:32.911Z,25.10
2022-09-12T15:59:00.221Z,24.96
2022-09-12T16:01:29.076Z,25.18
2022-09-12T16:03:55.594Z,25.05
2022-09-12T16:06:22.492Z,25.10
2022-09-12T16:08:49.316Z,25.23
2022-09-12T16:11:26.553Z,25.08
2022-09-12T16:13:54.635Z,25.25
2022-09-12T16:16:21.617Z,25.08
2022-09-12T16:18:48.246Z,24.98
2022-09-12T16:21:15.664Z,25.05
2022-09-12T16:23:43.539Z,24.78
2022-09-12T16:26:09.911Z,24.79
2022-09-12T16:28:36.379Z,24.77
2022-09-12T16:31:05.603Z,24.73
2022-09-12T16:33:32.851Z,24.78
2022-09-12T16:36:10.390Z,24.71
2022-09-12T16:38:47.201Z,24.66
2022-09-12T16:41:15.107Z,24.70
2022-09-12T16:43:42.882Z,24.71
2022-09-12T16:46:11.752Z,24.56
2022-09-12T16:48:50.957Z,24.44
2022-09-12T16:51:22.380Z,24.36
2022-09-12T16:53:49.464Z,24.24
2022-09-12T16:56:15.916Z,24.15
2022-09-12T16:58:43.112Z,24.18
2022-09-12T17:01:12.525Z,24.18
2022-09-12T17:03:39.070Z,24.01
2022-09-12T17:06:14.232Z,23.90
2022-09-12T17:08:43.697Z,23.78
2022-09-12T17:11:12.612Z,23.56
2022-09-12T17:14:03.183Z,23.51
2022-09-12T17:16:27.251Z,23.40
2022-09-12T17:18:54.623Z,23.27
2022-09-12T17:21:22.127Z,23.14
2022-09-12T17:23:48.970Z,23.08
2022-09-12T17:26:15.520Z,23.13
2022-09-12T17:28:42.275Z,23.29
2022-09-12T17:31:11.608Z,23.12
2022-09-12T17:33:39.137Z,22.95
2022-09-12T17:36:16.992Z,22.73
2022-09-12T17:38:45.404Z,22.23
2022-09-12T17:41:15.943Z,21.98
2022-09-12T17:43:46.327Z,21.86
2022-09-12T17:46:13.526Z,21.58
2022-09-12T17:48:39.931Z,21.63
2022-09-12T17:51:15.109Z,21.51
2022-09-12T17:53:42.890Z,21.42
2022-09-12T17:56:10.748Z,21.48
2022-09-12T17:58:38.022Z,21.37
2022-09-12T18:01:29.994Z,21.12
2022-09-12T18:04:00.435Z,21.04
2022-09-12T18:06:28.645Z,20.87
2022-09-12T18:08:55.326Z,20.87
2022-09-12T18:11:21.758Z,20.92
2022-09-12T18:13:48.190Z,20.96
2022-09-12T18:16:14.698Z,21.09
2022-09-12T18:18:41.183Z,21.06
2022-09-12T18:21:10.266Z,20.89
2022-09-12T18:23:36.651Z,20.60
2022-09-12T18:26:06.301Z,20.50
2022-09-12T18:28:37.762Z,20.63
2022-09-12T18:31:09.262Z,20.81
2022-09-12T18:33:35.622Z,20.84
2022-09-12T18:36:06.066Z,20.96
2022-09-12T18:38:32.916Z,20.93
2022-09-12T18:41:07.732Z,20.71
2022-09-12T18:43:34.336Z,20.72
2022-09-12T18:46:05.314Z,20.74
2022-09-12T18:48:35.263Z,20.84
2022-09-12T18:51:06.712Z,20.70
2022-09-12T18:53:34.616Z,20.65
2022-09-12T18:56:12.057Z,20.35
2022-09-12T18:58:40.571Z,20.06
2022-09-12T19:01:12.298Z,20.13
2022-09-12T19:03:39.143Z,19.98
2022-09-12T19:06:11.719Z,19.93
2022-09-12T19:08:38.766Z,19.70
2022-09-12T19:11:06.867Z,19.65
2022-09-12T19:13:36.483Z,19.62
2022-09-12T19:16:04.695Z,19.53
2022-09-12T19:18:33.963Z,19.52
2022-09-12T19:21:01.367Z,19.39
2022-09-12T19:23:27.778Z,19.28
2022-09-12T19:25:58.960Z,19.22
2022-09-12T19:28:26.221Z,19.22
2022-09-12T19:30:53.515Z,19.22
2022-09-12T19:33:20.662Z,19.14
2022-09-12T19:35:47.455Z,19.17
2022-09-12T19:38:14.056Z,19.13
2022-09-12T19:40:40.605Z,19.10
2022-09-12T19:43:07.567Z,19.08
2022-09-12T19:45:33.967Z,19.01
2022-09-12T19:48:00.315Z,18.89
2022-09-12T19:50:27.490Z,18.90
2022-09-12T19:52:53.918Z,19.03
2022-09-12T19:55:20.388Z,18.74
2022-09-12T19:57:46.847Z,18.67
2022-09-12T20:00:14.106Z,18.67
2022-09-12T20:02:40.486Z,18.62
2022-09-12T20:05:07.137Z,18.40
2022-09-12T20:07:33.493Z,18.21
2022-09-12T20:09:59.805Z,18.20
2022-09-12T20:12:26.140Z,18.23
2022-09-12T20:14:52.497Z,18.22
2022-09-12T20:17:19.470Z,18.02
2022-09-12T20:19:45.891Z,17.94
2022-09-12T20:22:12.300Z,17.86
2022-09-12T20:24:38.646Z,17.78
2022-09-12T20:27:04.999Z,17.79
2022-09-12T20:29:31.410Z,17.59
2022-09-12T20:31:57.824Z,17.53
2022-09-12T20:34:24.197Z,17.53
2022-09-12T20:36:50.734Z,17.43
2022-09-12T20:39:20.731Z,17.46
2022-09-12T20:41:47.487Z,17.37
2022-09-12T20:44:14.666Z,17.43
2022-09-12T20:46:41.533Z,17.40
2022-09-12T20:49:08.853Z,17.26
2022-09-12T20:51:38.725Z,17.28
2022-09-12T20:54:06.636Z,17.21
2022-09-12T20:56:34.965Z,17.16
2022-09-12T20:59:01.713Z,17.08
2022-09-12T21:01:30.044Z,16.93
2022-09-12T21:03:56.780Z,16.97
2022-09-12T21:06:23.590Z,16.84
2022-09-12T21:08:51.018Z,16.76
2022-09-12T21:11:19.032Z,16.74
2022-09-12T21:13:46.006Z,16.65
2022-09-12T21:16:18.125Z,16.65
2022-09-12T21:18:44.694Z,16.80
2022-09-12T21:21:12.861Z,16.71
2022-09-12T21:23:39.515Z,16.89
2022-09-12T21:26:07.485Z,16.97
2022-09-12T21:28:34.261Z,16.91
2022-09-12T21:31:00.776Z,16.81
2022-09-12T21:33:27.968Z,17.00
2022-09-12T21:35:54.965Z,16.89
2022-09-12T21:38:21.350Z,16.85
2022-09-12T21:40:47.792Z,16.52
2022-09-12T21:43:14.301Z,16.65
2022-09-12T21:45:40.819Z,16.45
2022-09-12T21:48:07.523Z,16.51
2022-09-12T21:50:34.312Z,16.64
2022-09-12T21:53:00.653Z,16.51
2022-09-12T21:55:27.352Z,16.39
2022-09-12T21:57:54.805Z,16.37
2022-09-12T22:00:21.839Z,16.44
2022-09-12T22:02:48.801Z,16.48
2022-09-12T22:05:15.453Z,16.55
2022-09-12T22:07:42.053Z,16.50
2022-09-12T22:10:09.125Z,16.39
2022-09-12T22:12:35.488Z,16.44
2022-09-12T22:15:17.507Z,16.37
2022-09-12T22:17:48.177Z,16.31
2022-09-12T22:20:14.610Z,16.31
2022-09-12T22:22:59.619Z,16.28
2022-09-12T22:25:25.961Z,16.16
2022-09-12T22:27:52.945Z,16.19
2022-09-12T22:30:20.843Z,16.21
2022-09-12T22:32:49.544Z,16.33
2022-09-12T22:35:17.441Z,16.28
2022-09-12T22:37:44.283Z,16.11
2022-09-12T22:40:11.670Z,16.11
2022-09-12T22:42:38.312Z,16.07
2022-09-12T22:45:05.930Z,16.19
2022-09-12T22:47:32.289Z,16.33
2022-09-12T22:49:58.796Z,16.00
2022-09-12T22:52:25.149Z,15.97
2022-09-12T22:54:51.501Z,15.94
2022-09-12T22:57:18.030Z,15.81
2022-09-12T22:59:44.406Z,16.00
2022-09-12T23:02:10.745Z,15.86
2022-09-12T23:04:37.572Z,15.82
2022-09-12T23:07:03.973Z,15.86
2022-09-12T23:09:35.117Z,15.86
2022-09-12T23:12:01.965Z,15.85
2022-09-12T23:14:29.509Z,15.91
2022-09-12T23:16:55.880Z,15.66
2022-09-12T23:19:22.351Z,15.61
2022-09-12T23:21:48.700Z,15.57
2022-09-12T23:24:15.037Z,15.62
2022-09-12T23:26:41.366Z,15.41
2022-09-12T23:29:08.996Z,15.40
2022-09-12T23:31:35.537Z,15.23
2022-09-12T23:34:05.760Z,15.21
2022-09-12T23:36:33.257Z,15.21
2022-09-12T23:38:59.749Z,15.32
2022-09-12T23:41:26.135Z,15.32
2022-09-12T23:43:52.571Z,15.40
2022-09-12T23:46:19.947Z,15.35
2022-09-12T23:48:46.517Z,15.32
2022-09-12T23:51:13.540Z,15.30
2022-09-12T23:53:41.270Z,15.39
2022-09-12T23:56:07.920Z,15.19
2022-09-12T23:58:34.429Z,15.37
